Afton, Oklahoma
Current Conditions -  °F | °C
As of 4:35 AM on Thursday 23 Oct 2014 (Local Time) from KGMJ Reporting Station
Broken Clouds Broken Clouds  
Wind Chill: 16°   Ceiling: 6000
Heat Index: 16°   Visibility: 10mi
Dew Point: 11°   Wind: 0mph
Humidity: 72%   Direction: NA
Pressure: 30.14"   Gusts: NA
Location:  36.69°N, 94.96°W
Report Text: KGMJ 230935Z AUTO 00000KT 10SM BKN060 BKN120 16/11 A3014 RMK AO2
Loading
Personal Weather Stations






























Interactive Weather Map
Tropical Storm Tracking
New forecast layout! Learn more

10-Day Weather Forecast

Advertisements
Track Severe Weather on mobile